createdAt,value
2022-08-28T00:00:54.289Z,4.60
2022-08-28T00:03:25.396Z,4.20
2022-08-28T00:05:53.764Z,3.90
2022-08-28T00:08:21.760Z,4.30
2022-08-28T00:10:50.405Z,4.30
2022-08-28T00:13:23.566Z,4.70
2022-08-28T00:15:56.050Z,4.30
2022-08-28T00:18:24.357Z,4.10
2022-08-28T00:20:52.688Z,4.40
2022-08-28T00:23:22.062Z,4.10
2022-08-28T00:25:50.159Z,4.70
2022-08-28T00:28:23.718Z,4.10
2022-08-28T00:30:59.187Z,4.10
2022-08-28T00:33:31.437Z,4.40
2022-08-28T00:36:01.449Z,4.20
2022-08-28T00:38:31.943Z,4.40
2022-08-28T00:41:03.880Z,4.20
2022-08-28T00:43:41.843Z,4.30
2022-08-28T00:46:14.554Z,4.20
2022-08-28T00:48:44.239Z,4.60
2022-08-28T00:51:32.688Z,4.20
2022-08-28T00:54:05.547Z,4.50
2022-08-28T00:56:38.062Z,4.30
2022-08-28T00:59:10.568Z,4.10
2022-08-28T01:01:39.578Z,4.40
2022-08-28T01:04:08.230Z,4.50
2022-08-28T01:06:37.096Z,4.10
2022-08-28T01:09:05.803Z,4.40
2022-08-28T01:11:34.801Z,4.40
2022-08-28T01:14:05.514Z,4.60
2022-08-28T01:16:34.541Z,3.90
2022-08-28T01:19:09.078Z,4.20
2022-08-28T01:21:46.114Z,4.20
2022-08-28T01:24:17.536Z,4.00
2022-08-28T01:26:45.604Z,4.40
2022-08-28T01:29:14.438Z,4.10
2022-08-28T01:31:44.801Z,3.90
2022-08-28T01:34:14.134Z,4.30
2022-08-28T01:36:43.359Z,3.80
2022-08-28T01:39:23.980Z,3.80
2022-08-28T01:41:54.789Z,4.20
2022-08-28T01:44:27.248Z,4.30
2022-08-28T01:46:58.294Z,4.20
2022-08-28T01:49:29.543Z,4.80
2022-08-28T01:51:58.709Z,4.00
2022-08-28T01:54:28.891Z,4.10
2022-08-28T01:56:58.074Z,4.10
2022-08-28T01:59:26.088Z,4.40
2022-08-28T02:01:55.832Z,4.20
2022-08-28T02:04:31.705Z,4.10
2022-08-28T02:07:00.471Z,4.00
2022-08-28T02:09:29.136Z,4.00
2022-08-28T02:11:57.469Z,4.30
2022-08-28T02:14:25.824Z,4.40
2022-08-28T02:16:53.930Z,4.00
2022-08-28T02:19:22.500Z,4.50
2022-08-28T02:21:50.878Z,4.10
2022-08-28T02:24:19.202Z,3.90
2022-08-28T02:26:47.374Z,4.40
2022-08-28T02:29:15.524Z,4.10
2022-08-28T02:31:43.627Z,4.80
2022-08-28T02:34:13.136Z,4.80
2022-08-28T02:36:43.259Z,3.80
2022-08-28T02:39:11.610Z,3.60
2022-08-28T02:41:40.794Z,4.30
2022-08-28T02:44:09.542Z,4.00
2022-08-28T02:46:37.554Z,4.30
2022-08-28T02:49:07.962Z,4.40
2022-08-28T02:51:36.291Z,4.30
2022-08-28T02:54:04.531Z,4.50
2022-08-28T02:56:32.562Z,4.30
2022-08-28T02:59:00.652Z,4.10
2022-08-28T03:01:29.577Z,4.00
2022-08-28T03:04:05.527Z,3.90
2022-08-28T03:06:33.973Z,4.60
2022-08-28T03:09:02.233Z,4.30
2022-08-28T03:11:30.314Z,3.90
2022-08-28T03:14:02.236Z,4.80
2022-08-28T03:16:32.692Z,4.20
2022-08-28T03:19:01.490Z,3.90
2022-08-28T03:21:30.603Z,4.20
2022-08-28T03:23:58.700Z,4.20
2022-08-28T03:26:26.759Z,4.20
2022-08-28T03:28:55.967Z,4.30
2022-08-28T03:31:28.119Z,4.00
2022-08-28T03:33:56.288Z,4.30
2022-08-28T03:36:27.284Z,4.60
2022-08-28T03:38:59.027Z,4.50
2022-08-28T03:41:29.567Z,4.30
2022-08-28T03:44:00.149Z,4.40
2022-08-28T03:46:33.004Z,4.30
2022-08-28T03:49:03.518Z,4.40
2022-08-28T03:51:34.910Z,4.50
2022-08-28T03:54:04.342Z,4.80
2022-08-28T03:56:32.453Z,4.40
2022-08-28T03:59:03.416Z,4.50
2022-08-28T04:01:33.566Z,4.10
2022-08-28T04:04:02.246Z,4.20
2022-08-28T04:06:31.555Z,4.10
2022-08-28T04:09:00.339Z,4.20
2022-08-28T04:11:28.841Z,4.90
2022-08-28T04:13:58.057Z,4.90
2022-08-28T04:16:26.207Z,5.20
2022-08-28T04:18:54.638Z,5.00
2022-08-28T04:21:26.328Z,4.40
2022-08-28T04:23:55.392Z,4.10
2022-08-28T04:26:26.339Z,3.90
2022-08-28T04:28:56.067Z,4.30
2022-08-28T04:31:32.380Z,4.00
2022-08-28T04:34:03.567Z,4.30
2022-08-28T04:36:33.727Z,4.50
2022-08-28T04:39:05.298Z,5.10
2022-08-28T04:41:33.351Z,4.90
2022-08-28T04:44:01.682Z,4.60
2022-08-28T04:46:31.276Z,4.60
2022-08-28T04:49:00.638Z,4.10
2022-08-28T04:51:29.139Z,4.40
2022-08-28T04:53:58.444Z,4.30
2022-08-28T04:56:26.903Z,4.30
2022-08-28T04:58:56.045Z,3.80
2022-08-28T05:01:25.154Z,4.50
2022-08-28T05:03:57.852Z,4.50
2022-08-28T05:06:28.268Z,4.30
2022-08-28T05:09:02.055Z,4.20
2022-08-28T05:11:34.273Z,3.80
2022-08-28T05:14:12.808Z,4.40
2022-08-28T05:16:49.362Z,4.90
2022-08-28T05:19:19.600Z,4.60
2022-08-28T05:21:49.221Z,4.60
2022-08-28T05:24:22.097Z,4.60
2022-08-28T05:26:50.421Z,5.00
2022-08-28T05:29:18.608Z,4.70
2022-08-28T05:31:47.965Z,4.60
2022-08-28T05:34:16.928Z,4.90
2022-08-28T05:36:45.231Z,4.80
2022-08-28T05:39:15.332Z,4.80
2022-08-28T05:41:45.718Z,5.10
2022-08-28T05:44:16.501Z,4.50
2022-08-28T05:46:48.424Z,4.70
2022-08-28T05:49:19.500Z,4.90
2022-08-28T05:51:49.375Z,5.10
2022-08-28T05:54:18.087Z,4.80
2022-08-28T05:56:46.748Z,4.80
2022-08-28T05:59:16.092Z,4.70
2022-08-28T06:01:47.445Z,4.70
2022-08-28T06:04:26.737Z,5.40
2022-08-28T06:06:55.338Z,6.50
2022-08-28T06:09:29.449Z,6.90
2022-08-28T06:12:01.765Z,7.90
2022-08-28T06:14:31.879Z,8.40
2022-08-28T06:17:01.334Z,8.10
2022-08-28T06:19:32.510Z,8.00
2022-08-28T06:22:06.930Z,8.60
2022-08-28T06:24:36.853Z,8.10
2022-08-28T06:27:05.381Z,7.70
2022-08-28T06:29:33.875Z,7.20
2022-08-28T06:32:04.978Z,7.90
2022-08-28T06:34:33.882Z,6.70
2022-08-28T06:37:02.436Z,7.10
2022-08-28T06:39:30.519Z,6.50
2022-08-28T06:42:00.124Z,6.60
2022-08-28T06:44:32.237Z,5.90
2022-08-28T06:47:00.550Z,5.10
2022-08-28T06:49:29.039Z,5.30
2022-08-28T06:51:58.162Z,5.50
2022-08-28T06:54:26.188Z,5.00
2022-08-28T06:56:54.321Z,5.20
2022-08-28T06:59:22.804Z,4.90
2022-08-28T07:01:53.024Z,5.10
2022-08-28T07:04:21.660Z,4.80
2022-08-28T07:06:54.687Z,4.70
2022-08-28T07:09:24.659Z,4.50
2022-08-28T07:11:53.264Z,4.60
2022-08-28T07:14:21.441Z,4.80
2022-08-28T07:16:50.144Z,4.50
2022-08-28T07:19:20.154Z,4.80
2022-08-28T07:21:48.337Z,5.30
2022-08-28T07:24:17.765Z,5.60
2022-08-28T07:26:48.018Z,5.80
2022-08-28T07:29:19.031Z,5.80
2022-08-28T07:31:56.697Z,6.70
2022-08-28T07:34:27.288Z,5.30
2022-08-28T07:36:56.455Z,5.00
2022-08-28T07:39:24.630Z,4.90
2022-08-28T07:41:52.710Z,5.70
2022-08-28T07:44:40.918Z,5.30
2022-08-28T07:47:11.728Z,5.80
2022-08-28T07:49:41.009Z,5.50
2022-08-28T07:52:10.300Z,5.50
2022-08-28T07:54:40.754Z,5.10
2022-08-28T07:57:10.371Z,4.80
2022-08-28T07:59:39.194Z,4.70
2022-08-28T08:02:10.530Z,5.40
2022-08-28T08:04:40.154Z,5.30
2022-08-28T08:07:08.526Z,5.10
2022-08-28T08:09:39.887Z,4.90
2022-08-28T08:12:10.417Z,4.90
2022-08-28T08:14:40.359Z,5.00
2022-08-28T08:17:09.786Z,4.50
2022-08-28T08:19:37.917Z,4.70
2022-08-28T08:22:06.401Z,5.20
2022-08-28T08:24:34.548Z,4.30
2022-08-28T08:27:03.502Z,4.20
2022-08-28T08:29:38.353Z,4.40
2022-08-28T08:32:10.390Z,4.60
2022-08-28T08:34:41.929Z,4.20
2022-08-28T08:37:10.641Z,4.60
2022-08-28T08:39:39.514Z,4.20
2022-08-28T08:42:23.415Z,4.10
2022-08-28T08:44:54.191Z,4.20
2022-08-28T08:47:48.812Z,4.30
2022-08-28T08:50:20.639Z,4.00
2022-08-28T08:53:01.645Z,3.90
2022-08-28T08:55:35.960Z,3.80
2022-08-28T08:58:16.873Z,4.10
2022-08-28T09:01:05.302Z,3.70
2022-08-28T09:03:50.089Z,4.00
2022-08-28T09:06:41.130Z,3.50
2022-08-28T09:09:18.605Z,3.30
2022-08-28T09:11:58.930Z,3.60
2022-08-28T09:14:36.768Z,3.50
2022-08-28T09:17:07.272Z,3.50
2022-08-28T09:19:35.658Z,3.60
2022-08-28T09:22:04.677Z,3.80
2022-08-28T09:24:37.040Z,4.10
2022-08-28T09:27:47.207Z,3.40
2022-08-28T09:30:16.475Z,4.00
2022-08-28T09:33:01.223Z,3.20
2022-08-28T09:35:31.973Z,3.30
2022-08-28T09:38:27.595Z,3.50
2022-08-28T09:41:29.460Z,3.30
2022-08-28T09:43:58.030Z,3.50
2022-08-28T09:46:32.150Z,3.60
2022-08-28T09:51:41.472Z,3.40
2022-08-28T09:54:17.352Z,3.40
2022-08-28T09:56:46.385Z,3.30
2022-08-28T09:59:23.920Z,2.90
2022-08-28T10:02:24.984Z,3.80
2022-08-28T10:05:09.722Z,3.60
2022-08-28T10:07:53.726Z,4.10
2022-08-28T10:10:45.963Z,3.50
2022-08-28T10:13:39.447Z,3.50
2022-08-28T10:16:20.365Z,3.30
2022-08-28T10:19:13.763Z,3.60
2022-08-28T10:22:05.487Z,3.20
2022-08-28T10:24:43.481Z,3.30
2022-08-28T10:27:35.712Z,3.70
2022-08-28T10:30:22.058Z,3.10
2022-08-28T10:33:02.220Z,3.00
2022-08-28T10:35:53.337Z,3.20
2022-08-28T10:38:36.682Z,3.10
2022-08-28T10:41:17.139Z,3.30
2022-08-28T10:43:48.539Z,3.00
2022-08-28T10:46:50.722Z,2.90
2022-08-28T10:49:23.082Z,3.30
2022-08-28T10:52:00.389Z,3.20
2022-08-28T10:54:53.653Z,3.00
2022-08-28T10:57:31.615Z,3.20
2022-08-28T11:00:13.463Z,3.40
2022-08-28T11:02:46.355Z,3.10
2022-08-28T11:05:20.099Z,3.00
2022-08-28T11:07:55.972Z,3.20
2022-08-28T11:10:30.193Z,3.10
2022-08-28T11:12:59.890Z,3.20
2022-08-28T11:15:31.557Z,3.40
2022-08-28T11:18:14.102Z,3.30
2022-08-28T11:21:01.125Z,3.20
2022-08-28T11:23:46.409Z,2.60
2022-08-28T11:26:26.789Z,3.10
2022-08-28T11:28:55.181Z,2.90
2022-08-28T11:31:32.274Z,3.00
2022-08-28T11:34:02.774Z,2.60
2022-08-28T11:36:32.595Z,2.80
2022-08-28T11:39:05.283Z,2.80
2022-08-28T11:41:36.631Z,2.90
2022-08-28T11:44:14.004Z,2.60
2022-08-28T11:46:48.460Z,2.80
2022-08-28T11:49:34.554Z,3.10
2022-08-28T11:52:15.124Z,3.00
2022-08-28T11:54:47.483Z,3.30
2022-08-28T11:57:24.675Z,2.90
2022-08-28T12:00:22.099Z,3.40
2022-08-28T12:03:24.514Z,2.90
2022-08-28T12:06:00.463Z,2.80
2022-08-28T12:08:47.851Z,3.30
2022-08-28T12:11:42.396Z,3.10
2022-08-28T12:14:26.448Z,2.70
2022-08-28T12:17:03.960Z,3.20
2022-08-28T12:19:55.890Z,3.10
2022-08-28T12:22:39.524Z,2.80
2022-08-28T12:25:39.585Z,3.20
2022-08-28T12:28:28.165Z,2.90
2022-08-28T12:31:05.393Z,2.60
2022-08-28T12:33:50.373Z,2.50
2022-08-28T12:36:26.787Z,2.80
2022-08-28T12:39:00.563Z,2.70
2022-08-28T12:41:28.630Z,2.30
2022-08-28T12:43:59.830Z,2.60
2022-08-28T12:46:36.439Z,2.50
2022-08-28T12:49:25.955Z,2.60
2022-08-28T12:52:18.995Z,2.40
2022-08-28T12:54:49.059Z,2.70
2022-08-28T12:57:20.549Z,2.60
2022-08-28T12:59:56.082Z,2.60
2022-08-28T13:02:33.864Z,2.40
2022-08-28T13:05:07.186Z,2.80
2022-08-28T13:07:40.757Z,2.90
2022-08-28T13:10:17.895Z,3.00
2022-08-28T13:12:55.882Z,2.90
2022-08-28T13:15:44.303Z,3.30
2022-08-28T13:18:36.607Z,3.30
2022-08-28T13:21:32.670Z,3.10
2022-08-28T13:24:24.121Z,2.80
2022-08-28T13:27:14.126Z,2.80
2022-08-28T13:30:01.849Z,2.80
2022-08-28T13:32:34.701Z,2.90
2022-08-28T13:35:08.887Z,2.40
2022-08-28T13:37:51.157Z,2.80
2022-08-28T13:40:55.807Z,2.90
2022-08-28T13:43:16.132Z,2.70
2022-08-28T13:45:49.307Z,2.60
2022-08-28T13:48:20.805Z,2.70
2022-08-28T13:50:58.799Z,2.60
2022-08-28T13:53:27.049Z,2.30
2022-08-28T13:55:56.278Z,2.70
2022-08-28T13:58:24.862Z,2.70
2022-08-28T14:00:53.682Z,2.80
2022-08-28T14:03:38.320Z,2.00
2022-08-28T14:06:14.404Z,2.60
2022-08-28T14:08:44.005Z,2.60
2022-08-28T14:11:15.198Z,2.40
2022-08-28T14:13:47.186Z,2.30
2022-08-28T14:16:25.925Z,1.90
2022-08-28T14:18:54.689Z,2.30
2022-08-28T14:21:24.794Z,1.90
2022-08-28T14:23:53.653Z,2.20
2022-08-28T14:26:22.067Z,3.10
2022-08-28T14:28:50.090Z,2.30
2022-08-28T14:31:19.495Z,2.70
2022-08-28T14:33:47.849Z,2.40
2022-08-28T14:36:25.126Z,2.30
2022-08-28T14:38:55.005Z,2.40
2022-08-28T14:41:25.442Z,2.00
2022-08-28T14:43:55.187Z,2.30
2022-08-28T14:46:30.060Z,2.20
2022-08-28T14:49:02.644Z,2.20
2022-08-28T14:51:32.776Z,2.00
2022-08-28T14:54:01.902Z,2.50
2022-08-28T14:56:32.317Z,2.00
2022-08-28T14:59:02.180Z,2.70
2022-08-28T15:01:43.803Z,2.60
2022-08-28T15:04:16.082Z,2.20
2022-08-28T15:06:46.760Z,2.70
2022-08-28T15:09:15.194Z,2.60
2022-08-28T15:11:44.840Z,2.10
2022-08-28T15:14:13.409Z,2.60
2022-08-28T15:16:45.253Z,2.50
2022-08-28T15:19:17.833Z,2.00
2022-08-28T15:21:50.082Z,2.10
2022-08-28T15:24:20.492Z,2.40
2022-08-28T15:26:49.189Z,2.40
2022-08-28T15:29:18.212Z,2.30
2022-08-28T15:31:49.284Z,2.40
2022-08-28T15:34:24.214Z,2.50
2022-08-28T15:36:55.335Z,2.90
2022-08-28T15:39:47.078Z,2.00
2022-08-28T15:42:15.641Z,2.20
2022-08-28T15:44:44.458Z,2.20
2022-08-28T15:47:14.243Z,2.30
2022-08-28T15:49:49.700Z,2.40
2022-08-28T15:52:19.921Z,2.30
2022-08-28T15:54:49.712Z,2.30
2022-08-28T15:57:21.827Z,2.10
2022-08-28T15:59:50.926Z,2.60
2022-08-28T16:02:23.604Z,2.40
2022-08-28T16:04:54.309Z,2.60
2022-08-28T16:07:26.003Z,2.40
2022-08-28T16:09:54.495Z,2.20
2022-08-28T16:12:23.197Z,2.50
2022-08-28T16:14:51.656Z,2.30
2022-08-28T16:17:20.272Z,2.40
2022-08-28T16:19:50.876Z,2.20
2022-08-28T16:22:19.336Z,2.90
2022-08-28T16:24:51.208Z,2.90
2022-08-28T16:27:19.394Z,4.00
2022-08-28T16:29:52.931Z,3.20
2022-08-28T16:32:21.719Z,2.60
2022-08-28T16:34:50.683Z,4.50
2022-08-28T16:37:21.073Z,2.90
2022-08-28T16:39:56.335Z,2.90
2022-08-28T16:42:24.818Z,3.50
2022-08-28T16:44:57.651Z,5.80
2022-08-28T16:47:27.640Z,3.80
2022-08-28T16:50:03.270Z,3.70
2022-08-28T16:52:31.513Z,3.70
2022-08-28T16:55:00.080Z,3.40
2022-08-28T16:57:29.753Z,3.80
2022-08-28T16:59:58.332Z,4.20
2022-08-28T17:02:28.243Z,3.70
2022-08-28T17:05:00.640Z,4.30
2022-08-28T17:07:28.920Z,4.20
2022-08-28T17:09:57.204Z,4.10
2022-08-28T17:12:25.456Z,4.00
2022-08-28T17:14:53.690Z,4.00
2022-08-28T17:17:22.477Z,3.80
2022-08-28T17:19:50.552Z,3.90
2022-08-28T17:22:32.556Z,3.80
2022-08-28T17:25:13.805Z,4.80
2022-08-28T17:27:42.596Z,4.70
2022-08-28T17:30:11.625Z,4.00
2022-08-28T17:32:40.845Z,4.20
2022-08-28T17:35:09.241Z,4.30
2022-08-28T17:37:38.772Z,4.00
2022-08-28T17:40:10.317Z,4.00
2022-08-28T17:42:38.577Z,4.50
2022-08-28T17:45:10.982Z,3.70
2022-08-28T17:47:39.443Z,4.60
2022-08-28T17:50:08.303Z,4.20
2022-08-28T17:52:36.982Z,4.20
2022-08-28T17:55:07.090Z,4.10
2022-08-28T17:57:37.142Z,4.60
2022-08-28T18:00:10.264Z,4.70
2022-08-28T18:02:41.655Z,4.40
2022-08-28T18:05:11.944Z,4.30
2022-08-28T18:07:40.147Z,4.40
2022-08-28T18:10:10.487Z,4.00
2022-08-28T18:12:40.470Z,4.30
2022-08-28T18:15:12.295Z,4.40
2022-08-28T18:17:42.409Z,4.60
2022-08-28T18:20:11.708Z,4.80
2022-08-28T18:22:39.977Z,4.70
2022-08-28T18:25:09.366Z,4.70
2022-08-28T18:27:37.482Z,4.90
2022-08-28T18:30:06.040Z,4.50
2022-08-28T18:32:34.189Z,4.60
2022-08-28T18:35:02.434Z,4.50
2022-08-28T18:37:30.492Z,5.10
2022-08-28T18:39:58.806Z,5.60
2022-08-28T18:42:29.969Z,5.30
2022-08-28T18:44:58.405Z,6.00
2022-08-28T18:47:26.974Z,4.70
2022-08-28T18:49:55.221Z,4.90
2022-08-28T18:52:23.524Z,4.40
2022-08-28T18:54:52.525Z,4.50
2022-08-28T18:59:55.907Z,5.40
2022-08-28T19:02:24.582Z,5.30
2022-08-28T19:04:53.765Z,4.90
2022-08-28T19:07:21.890Z,5.60
2022-08-28T19:09:50.106Z,4.90
2022-08-28T19:12:18.356Z,4.50
2022-08-28T19:14:46.469Z,4.90
2022-08-28T19:17:19.053Z,4.90
2022-08-28T19:19:49.935Z,4.80
2022-08-28T19:22:19.402Z,4.80
2022-08-28T19:24:48.624Z,4.20
2022-08-28T19:27:16.978Z,4.60
2022-08-28T19:29:45.043Z,5.00
2022-08-28T19:32:13.959Z,4.40
2022-08-28T19:34:42.283Z,4.70
2022-08-28T19:37:10.394Z,4.90
2022-08-28T19:39:39.098Z,4.70
2022-08-28T19:42:08.418Z,5.10
2022-08-28T19:44:39.018Z,5.30
2022-08-28T19:47:10.712Z,4.70
2022-08-28T19:49:38.895Z,4.50
2022-08-28T19:52:07.974Z,5.00
2022-08-28T19:54:41.116Z,5.40
2022-08-28T19:57:09.245Z,5.00
2022-08-28T19:59:37.449Z,4.90
2022-08-28T20:02:06.203Z,5.20
2022-08-28T20:04:34.523Z,5.20
2022-08-28T20:07:02.777Z,5.30
2022-08-28T20:09:30.968Z,4.60
2022-08-28T20:12:01.014Z,5.10
2022-08-28T20:14:29.503Z,4.80
2022-08-28T20:16:58.987Z,4.60
2022-08-28T20:19:27.350Z,4.90
2022-08-28T20:21:55.994Z,4.80
2022-08-28T20:24:25.330Z,5.30
2022-08-28T20:26:53.895Z,5.10
2022-08-28T20:29:24.358Z,4.80
2022-08-28T20:31:53.283Z,5.00
2022-08-28T20:34:22.359Z,4.70
2022-08-28T20:36:51.099Z,4.50
2022-08-28T20:39:20.589Z,4.80
2022-08-28T20:41:49.500Z,5.10
2022-08-28T20:44:20.281Z,4.60
2022-08-28T20:46:51.217Z,5.20
2022-08-28T20:49:24.153Z,5.00
2022-08-28T20:52:01.121Z,4.80
2022-08-28T20:54:32.809Z,4.70
2022-08-28T20:57:03.777Z,4.70
2022-08-28T20:59:37.284Z,5.40
2022-08-28T21:02:11.903Z,4.60
2022-08-28T21:04:42.094Z,5.00
2022-08-28T21:07:11.307Z,5.20
2022-08-28T21:10:04.919Z,5.30
2022-08-28T21:12:29.755Z,5.50
2022-08-28T21:14:58.728Z,4.80
2022-08-28T21:17:29.486Z,4.80
2022-08-28T21:20:02.848Z,5.20
2022-08-28T21:22:33.034Z,4.70
2022-08-28T21:25:06.938Z,4.80
2022-08-28T21:27:35.851Z,4.80
2022-08-28T21:30:06.014Z,4.80
2022-08-28T21:32:35.069Z,4.70
2022-08-28T21:35:05.496Z,4.90
2022-08-28T21:37:34.526Z,4.40
2022-08-28T21:40:04.870Z,4.50
2022-08-28T21:42:32.897Z,4.80
2022-08-28T21:45:02.723Z,4.90
2022-08-28T21:47:31.418Z,4.80
2022-08-28T21:50:00.819Z,4.60
2022-08-28T21:52:32.765Z,5.00
2022-08-28T21:55:06.250Z,4.90
2022-08-28T21:57:35.079Z,4.70
2022-08-28T22:00:12.037Z,4.70
2022-08-28T22:02:40.208Z,4.50
2022-08-28T22:05:08.657Z,5.00
2022-08-28T22:07:36.943Z,5.20
2022-08-28T22:10:05.769Z,4.40
2022-08-28T22:12:33.883Z,4.60
2022-08-28T22:15:02.316Z,4.80
2022-08-28T22:17:30.380Z,4.50
2022-08-28T22:19:59.977Z,4.30
2022-08-28T22:22:46.495Z,4.70
2022-08-28T22:25:15.312Z,4.60
2022-08-28T22:27:43.466Z,4.70
2022-08-28T22:30:12.248Z,4.40
2022-08-28T22:32:40.309Z,4.80
2022-08-28T22:35:09.650Z,4.60
2022-08-28T22:37:37.991Z,4.50
2022-08-28T22:40:13.187Z,4.30
2022-08-28T22:42:42.692Z,5.00
2022-08-28T22:45:11.178Z,4.70
2022-08-28T22:47:39.800Z,4.70
2022-08-28T22:50:09.275Z,4.40
2022-08-28T22:52:38.724Z,4.90
2022-08-28T22:55:12.518Z,5.10
2022-08-28T22:57:41.128Z,4.70
2022-08-28T23:00:13.975Z,4.30
2022-08-28T23:02:43.654Z,4.60
2022-08-28T23:05:13.673Z,4.50
2022-08-28T23:07:42.077Z,4.90
2022-08-28T23:10:12.775Z,4.90
2022-08-28T23:12:40.829Z,4.50
2022-08-28T23:15:14.483Z,5.60
2022-08-28T23:17:43.364Z,4.90
2022-08-28T23:20:14.485Z,4.80
2022-08-28T23:22:43.306Z,4.70
2022-08-28T23:25:16.099Z,4.80
2022-08-28T23:27:45.514Z,4.80
2022-08-28T23:30:16.219Z,4.80
2022-08-28T23:32:45.895Z,4.60
2022-08-28T23:35:15.421Z,5.10
2022-08-28T23:37:48.510Z,5.10
2022-08-28T23:40:21.763Z,4.70
2022-08-28T23:42:50.867Z,4.50
2022-08-28T23:45:21.147Z,4.30
2022-08-28T23:47:49.375Z,4.20
2022-08-28T23:50:20.738Z,4.80
2022-08-28T23:52:49.955Z,5.00
2022-08-28T23:55:19.585Z,4.60
2022-08-28T23:57:48.041Z,4.80
